createdAt,value
2023-05-12T00:03:57.486Z,14.79
2023-05-12T00:09:00.533Z,14.84
2023-05-12T00:14:04.593Z,14.86
2023-05-12T00:19:07.343Z,14.92
2023-05-12T00:24:10.106Z,14.95
2023-05-12T00:29:13.972Z,14.95
2023-05-12T00:34:16.901Z,14.92
2023-05-12T00:39:19.466Z,14.85
2023-05-12T00:44:23.385Z,14.83
2023-05-12T00:49:27.289Z,14.69
2023-05-12T00:54:30.081Z,14.62
2023-05-12T00:59:34.028Z,14.57
2023-05-12T01:04:37.503Z,14.49
2023-05-12T01:09:40.615Z,14.48
2023-05-12T01:14:44.751Z,14.47
2023-05-12T01:19:51.476Z,14.35
2023-05-12T01:24:56.924Z,14.32
2023-05-12T01:30:04.481Z,14.29
2023-05-12T01:35:10.399Z,14.27
2023-05-12T01:41:06.206Z,14.32
2023-05-12T01:46:11.078Z,14.28
2023-05-12T01:51:17.318Z,14.20
2023-05-12T01:56:21.661Z,14.34
2023-05-12T02:01:28.526Z,14.36
2023-05-12T02:06:32.599Z,14.40
2023-05-12T02:11:35.475Z,14.42
2023-05-12T02:16:39.715Z,14.54
2023-05-12T02:21:42.899Z,14.61
2023-05-12T02:26:45.608Z,14.69
2023-05-12T02:31:50.650Z,14.72
2023-05-12T02:36:54.072Z,14.80
2023-05-12T02:41:56.596Z,14.84
2023-05-12T02:47:00.610Z,14.83
2023-05-12T02:52:03.270Z,14.84
2023-05-12T02:57:06.887Z,14.90
2023-05-12T03:02:10.964Z,14.95
2023-05-12T03:07:13.568Z,15.03
2023-05-12T03:12:16.522Z,15.06
2023-05-12T03:17:20.585Z,15.08
2023-05-12T03:22:24.639Z,15.08
2023-05-12T03:27:27.241Z,15.09
2023-05-12T03:32:31.887Z,15.05
2023-05-12T03:37:34.629Z,15.06
2023-05-12T03:42:37.595Z,15.04
2023-05-12T03:47:42.274Z,15.01
2023-05-12T03:52:45.106Z,14.94
2023-05-12T03:57:49.060Z,14.96
2023-05-12T04:02:53.041Z,14.94
2023-05-12T04:07:56.011Z,14.95
2023-05-12T04:12:59.033Z,14.95
2023-05-12T04:18:24.047Z,14.95
2023-05-12T04:23:46.606Z,14.94
2023-05-12T04:29:09.421Z,14.92
2023-05-12T04:34:33.521Z,14.90
2023-05-12T04:39:56.366Z,14.88
2023-05-12T04:45:19.513Z,14.92
2023-05-12T04:50:44.002Z,14.90
2023-05-12T04:56:07.136Z,14.95
2023-05-12T05:01:33.815Z,14.96
2023-05-12T05:06:57.824Z,14.97
2023-05-12T05:12:21.035Z,14.95
2023-05-12T05:17:24.431Z,15.02
2023-05-12T05:22:28.415Z,14.99
2023-05-12T05:27:31.300Z,15.01
2023-05-12T05:32:36.446Z,15.06
2023-05-12T05:37:40.501Z,15.10
2023-05-12T05:42:43.132Z,15.14
2023-05-12T05:47:49.826Z,14.69
2023-05-12T05:52:54.977Z,15.19
2023-05-12T05:57:58.845Z,15.29
2023-05-12T06:03:01.919Z,15.37
2023-05-12T06:08:08.881Z,15.75
2023-05-12T06:13:11.912Z,15.76
2023-05-12T06:18:17.065Z,15.78
2023-05-12T06:23:21.828Z,15.77
2023-05-12T06:28:24.390Z,15.76
2023-05-12T06:33:27.831Z,15.74
2023-05-12T06:38:31.740Z,15.81
2023-05-12T06:43:34.636Z,15.85
2023-05-12T06:48:39.428Z,15.93
2023-05-12T06:53:43.683Z,16.03
2023-05-12T06:58:46.280Z,16.14
2023-05-12T07:03:48.822Z,16.19
2023-05-12T07:08:52.706Z,16.14
2023-05-12T07:13:55.628Z,16.19
2023-05-12T07:18:58.239Z,16.18
2023-05-12T07:24:02.143Z,16.21
2023-05-12T07:29:05.322Z,16.28
2023-05-12T07:34:08.248Z,16.26
2023-05-12T07:39:12.766Z,16.28
2023-05-12T07:44:16.256Z,16.27
2023-05-12T07:49:18.905Z,16.23
2023-05-12T07:54:23.021Z,16.18
2023-05-12T07:59:25.697Z,16.16
2023-05-12T08:04:28.537Z,16.08
2023-05-12T08:09:32.521Z,16.05
2023-05-12T08:14:36.426Z,16.02
2023-05-12T08:19:39.047Z,16.06
2023-05-12T08:24:43.438Z,16.05
2023-05-12T08:29:46.034Z,16.14
2023-05-12T08:34:48.760Z,16.26
2023-05-12T08:39:53.322Z,16.39
2023-05-12T08:44:56.859Z,16.53
2023-05-12T08:50:01.627Z,16.58
2023-05-12T08:55:06.844Z,16.59
2023-05-12T09:00:11.621Z,16.58
2023-05-12T09:05:14.169Z,16.53
2023-05-12T09:10:33.771Z,16.46
2023-05-12T09:15:42.194Z,16.47
2023-05-12T09:20:44.734Z,16.57
2023-05-12T09:26:00.172Z,16.62
2023-05-12T09:31:03.607Z,16.80
2023-05-12T09:36:07.057Z,16.79
2023-05-12T09:41:10.988Z,16.99
2023-05-12T09:46:14.533Z,17.04
2023-05-12T09:51:18.252Z,17.07
2023-05-12T09:56:22.715Z,17.13
2023-05-12T10:01:26.183Z,17.04
2023-05-12T10:06:31.925Z,17.15
2023-05-12T10:11:36.670Z,17.34
2023-05-12T10:16:40.756Z,17.52
2023-05-12T10:21:45.941Z,17.58
2023-05-12T10:26:50.259Z,17.72
2023-05-12T10:31:53.088Z,17.84
2023-05-12T10:36:55.724Z,17.96
2023-05-12T10:42:07.014Z,18.08
2023-05-12T10:47:14.720Z,18.09
2023-05-12T10:52:20.965Z,18.12
2023-05-12T10:57:25.337Z,18.28
2023-05-12T11:02:32.037Z,18.38
2023-05-12T11:07:35.811Z,18.62
2023-05-12T11:12:40.433Z,18.71
2023-05-12T11:17:43.161Z,18.94
2023-05-12T11:22:46.411Z,18.99
2023-05-12T11:27:51.261Z,19.13
2023-05-12T11:33:03.688Z,19.28
2023-05-12T11:38:16.242Z,19.39
2023-05-12T11:43:22.685Z,19.32
2023-05-12T11:48:34.348Z,19.44
2023-05-12T11:53:41.453Z,19.61
2023-05-12T11:58:53.482Z,19.69
2023-05-12T12:03:57.091Z,19.85
2023-05-12T12:09:00.793Z,19.81
2023-05-12T12:14:04.981Z,19.80
2023-05-12T12:19:08.627Z,19.82
2023-05-12T12:24:11.388Z,19.43
2023-05-12T12:29:15.318Z,19.75
2023-05-12T12:34:17.895Z,19.91
2023-05-12T12:39:21.618Z,19.75
2023-05-12T12:44:25.575Z,19.64
2023-05-12T12:49:28.266Z,19.71
2023-05-12T12:54:30.839Z,19.72
2023-05-12T13:04:51.861Z,19.73
2023-05-12T13:09:54.424Z,19.70
2023-05-12T13:15:00.052Z,19.63
2023-05-12T13:20:03.804Z,19.51
2023-05-12T13:25:07.968Z,19.47
2023-05-12T13:30:13.872Z,19.53
2023-05-12T13:35:16.645Z,19.55
2023-05-12T13:40:19.773Z,19.47
2023-05-12T13:45:23.928Z,19.52
2023-05-12T13:50:26.785Z,19.59
2023-05-12T13:55:29.838Z,19.61
2023-05-12T14:00:33.865Z,19.66
2023-05-12T14:05:36.503Z,19.63
2023-05-12T14:10:39.483Z,19.72
2023-05-12T14:15:49.245Z,19.93
2023-05-12T14:20:52.916Z,19.98
2023-05-12T14:25:55.743Z,20.06
2023-05-12T14:30:59.737Z,20.26
2023-05-12T14:36:07.325Z,20.38
2023-05-12T14:41:10.946Z,20.65
2023-05-12T14:46:14.835Z,20.70
2023-05-12T14:51:17.477Z,20.69
2023-05-12T14:56:20.261Z,20.63
2023-05-12T15:01:24.397Z,19.91
2023-05-12T15:06:27.005Z,19.62
2023-05-12T15:11:29.543Z,18.80
2023-05-12T15:16:33.477Z,18.33
2023-05-12T15:21:36.812Z,18.18
2023-05-12T15:26:40.589Z,18.10
2023-05-12T15:31:45.168Z,18.01
2023-05-12T15:36:48.807Z,17.88
2023-05-12T15:41:51.376Z,17.91
2023-05-12T15:46:55.533Z,17.94
2023-05-12T15:51:58.190Z,18.04
2023-05-12T15:57:01.522Z,18.12
2023-05-12T16:02:05.588Z,18.11
2023-05-12T16:07:08.737Z,18.38
2023-05-12T16:12:25.496Z,18.34
2023-05-12T16:17:29.638Z,18.47
2023-05-12T16:22:32.220Z,18.41
2023-05-12T16:27:36.771Z,18.08
2023-05-12T16:32:41.515Z,17.76
2023-05-12T16:37:44.213Z,17.36
2023-05-12T16:42:47.271Z,16.88
2023-05-12T16:47:52.196Z,16.27
2023-05-12T16:52:55.057Z,16.88
2023-05-12T16:57:57.969Z,16.89
2023-05-12T17:03:04.463Z,16.89
2023-05-12T17:08:07.275Z,16.84
2023-05-12T17:13:10.158Z,16.71
2023-05-12T17:18:14.133Z,16.63
2023-05-12T17:23:16.831Z,16.60
2023-05-12T17:28:19.415Z,16.66
2023-05-12T17:33:23.902Z,16.69
2023-05-12T17:38:27.407Z,16.66
2023-05-12T17:43:30.373Z,16.63
2023-05-12T17:48:34.319Z,16.66
2023-05-12T17:53:36.881Z,16.64
2023-05-12T17:58:39.446Z,16.59
2023-05-12T18:03:44.257Z,16.55
2023-05-12T18:08:47.040Z,16.54
2023-05-12T18:13:50.993Z,16.55
2023-05-12T18:18:55.675Z,16.52
2023-05-12T18:23:58.279Z,16.62
2023-05-12T18:29:00.909Z,16.47
2023-05-12T18:34:06.204Z,16.46
2023-05-12T18:39:10.406Z,16.41
2023-05-12T18:44:13.020Z,16.38
2023-05-12T18:49:16.887Z,16.30
2023-05-12T18:54:19.627Z,16.25
2023-05-12T18:59:22.354Z,16.21
2023-05-12T19:04:31.316Z,16.17
2023-05-12T19:09:34.236Z,16.12
2023-05-12T19:14:37.739Z,16.14
2023-05-12T19:19:55.803Z,15.75
2023-05-12T19:24:58.481Z,16.03
2023-05-12T19:30:02.192Z,16.11
2023-05-12T19:35:07.041Z,16.07
2023-05-12T19:40:10.455Z,15.99
2023-05-12T19:45:13.065Z,15.95
2023-05-12T19:50:18.607Z,15.90
2023-05-12T19:55:21.830Z,15.86
2023-05-12T20:00:26.669Z,15.76
2023-05-12T20:05:30.743Z,15.79
2023-05-12T20:10:33.354Z,15.72
2023-05-12T20:15:36.017Z,14.94
2023-05-12T20:20:39.912Z,15.55
2023-05-12T20:25:43.146Z,15.52
2023-05-12T20:30:45.985Z,15.49
2023-05-12T20:35:49.920Z,15.59
2023-05-12T20:40:52.912Z,15.51
2023-05-12T20:45:55.637Z,15.47
2023-05-12T20:50:59.606Z,15.42
2023-05-12T20:56:03.227Z,14.89
2023-05-12T21:01:05.866Z,15.28
2023-05-12T21:06:10.385Z,15.31
2023-05-12T21:11:16.598Z,15.27
2023-05-12T21:16:19.214Z,15.24
2023-05-12T21:21:23.161Z,15.13
2023-05-12T21:26:27.450Z,15.17
2023-05-12T21:31:30.214Z,15.10
2023-05-12T21:36:34.498Z,15.10
2023-05-12T21:41:38.395Z,15.08
2023-05-12T21:46:41.036Z,15.05
2023-05-12T21:51:45.100Z,14.95
2023-05-12T21:56:47.779Z,14.85
2023-05-12T22:01:50.447Z,14.88
2023-05-12T22:06:54.843Z,14.85
2023-05-12T22:11:57.402Z,14.83
2023-05-12T22:17:00.512Z,14.78
2023-05-12T22:22:05.230Z,14.74
2023-05-12T22:27:07.775Z,14.63
2023-05-12T22:32:10.297Z,14.58
2023-05-12T22:37:14.299Z,14.21
2023-05-12T22:42:17.065Z,14.47
2023-05-12T22:47:19.734Z,14.45
2023-05-12T22:52:23.652Z,14.45
2023-05-12T22:57:26.269Z,14.46
2023-05-12T23:02:28.849Z,14.24
2023-05-12T23:07:32.812Z,14.16
2023-05-12T23:12:35.399Z,14.21
2023-05-12T23:17:38.388Z,14.16
2023-05-12T23:22:42.260Z,14.09
2023-05-12T23:27:44.796Z,13.99
2023-05-12T23:32:50.177Z,13.80
2023-05-12T23:37:54.350Z,13.63
2023-05-12T23:42:56.881Z,13.60
2023-05-12T23:47:59.586Z,13.73
2023-05-12T23:53:03.562Z,13.83
2023-05-12T23:58:06.768Z,13.76
